createdAt,value
2023-01-17T00:02:12.174Z,96954.45
2023-01-17T00:06:39.169Z,96949.61
2023-01-17T00:10:39.192Z,96954.02
2023-01-17T00:14:37.137Z,96954.02
2023-01-17T00:18:35.160Z,96960.95
2023-01-17T00:22:55.128Z,96960.29
2023-01-17T00:27:07.179Z,96961.55
2023-01-17T00:31:04.173Z,96961.43
2023-01-17T00:35:01.173Z,96951.34
2023-01-17T00:38:58.126Z,96950.44
2023-01-17T00:42:55.201Z,96951.66
2023-01-17T00:47:10.132Z,96950.98
2023-01-17T00:51:25.178Z,96943.91
2023-01-17T00:55:41.109Z,96942.22
2023-01-17T00:59:56.138Z,96949.11
2023-01-17T01:04:11.095Z,96951.23
2023-01-17T01:08:26.099Z,96954.73
2023-01-17T01:12:41.093Z,96948.13
2023-01-17T01:16:57.205Z,96942.45
2023-01-17T01:21:13.062Z,96936.76
2023-01-17T01:25:28.095Z,96938.52
2023-01-17T01:29:43.076Z,96934.25
2023-01-17T01:33:40.108Z,96927.82
2023-01-17T01:37:38.086Z,96917.99
2023-01-17T01:41:36.063Z,96910.27
2023-01-17T01:45:43.123Z,96907.86
2023-01-17T01:49:41.239Z,96897.44
2023-01-17T01:53:40.038Z,96887.89
2023-01-17T01:57:42.114Z,96879.87
2023-01-17T02:01:40.199Z,96875.24
2023-01-17T02:05:40.077Z,96874.05
2023-01-17T02:09:39.025Z,96871.66
2023-01-17T02:13:38.031Z,96865.84
2023-01-17T02:17:46.034Z,96863.63
2023-01-17T02:21:57.119Z,96862.89
2023-01-17T02:26:13.118Z,96859.91
2023-01-17T02:30:34.001Z,96861.40
2023-01-17T02:34:50.034Z,96854.84
2023-01-17T02:39:06.041Z,96852.74
2023-01-17T02:43:16.965Z,96853.95
2023-01-17T02:47:15.005Z,96852.82
2023-01-17T02:51:12.937Z,96852.20
2023-01-17T02:55:40.165Z,96851.23
2023-01-17T02:59:50.001Z,96852.80
2023-01-17T03:04:01.944Z,96845.50
2023-01-17T03:07:59.924Z,96841.04
2023-01-17T03:11:58.999Z,96836.05
2023-01-17T03:15:56.943Z,96834.98
2023-01-17T03:19:54.946Z,96829.57
2023-01-17T03:23:55.078Z,96826.28
2023-01-17T03:27:54.919Z,96829.85
2023-01-17T03:31:52.908Z,96832.33
2023-01-17T03:35:50.945Z,96827.75
2023-01-17T03:39:48.871Z,96825.27
2023-01-17T03:43:46.904Z,96828.30
2023-01-17T03:47:44.929Z,96832.58
2023-01-17T03:51:50.041Z,96828.35
2023-01-17T03:55:47.854Z,96828.25
2023-01-17T03:59:45.948Z,96827.65
2023-01-17T04:03:43.840Z,96834.09
2023-01-17T04:07:41.910Z,96830.52
2023-01-17T04:11:39.935Z,96831.39
2023-01-17T04:15:37.875Z,96828.92
2023-01-17T04:19:35.849Z,96823.41
2023-01-17T04:23:33.839Z,96829.73
2023-01-17T04:27:31.861Z,96837.70
2023-01-17T04:31:31.910Z,96829.52
2023-01-17T04:35:29.825Z,96838.02
2023-01-17T04:39:27.809Z,96844.46
2023-01-17T04:43:25.802Z,96846.18
2023-01-17T04:47:23.794Z,96853.08
2023-01-17T04:51:21.794Z,96852.73
2023-01-17T04:55:20.797Z,96856.34
2023-01-17T04:59:18.842Z,96850.46
2023-01-17T05:03:16.848Z,96850.91
2023-01-17T05:07:14.763Z,96857.00
2023-01-17T05:11:12.890Z,96853.05
2023-01-17T05:15:10.772Z,96862.88
2023-01-17T05:19:08.858Z,96861.95
2023-01-17T05:23:10.836Z,96868.80
2023-01-17T05:27:09.823Z,96870.16
2023-01-17T05:31:07.827Z,96872.77
2023-01-17T05:35:05.784Z,96880.63
2023-01-17T05:39:03.698Z,96875.15
2023-01-17T05:43:05.837Z,96875.64
2023-01-17T05:47:03.724Z,96876.42
2023-01-17T05:51:01.812Z,96874.34
2023-01-17T05:54:59.744Z,96872.46
2023-01-17T05:58:57.748Z,96878.76
2023-01-17T06:02:55.804Z,96884.06
2023-01-17T06:06:53.810Z,96882.48
2023-01-17T06:10:51.699Z,96880.19
2023-01-17T06:14:49.726Z,96881.33
2023-01-17T06:18:49.701Z,96881.86
2023-01-17T06:22:47.688Z,96890.51
2023-01-17T06:26:45.755Z,96904.89
2023-01-17T06:30:43.650Z,96916.70
2023-01-17T06:34:41.719Z,96919.11
2023-01-17T06:38:39.701Z,96923.32
2023-01-17T06:42:37.625Z,96927.45
2023-01-17T06:46:35.635Z,96918.99
2023-01-17T06:50:33.612Z,96913.29
2023-01-17T06:54:31.657Z,96913.12
2023-01-17T06:58:29.685Z,96908.70
2023-01-17T07:02:07.197Z,96902.00
2023-01-17T07:05:31.163Z,96906.23
2023-01-17T07:08:55.452Z,96899.83
2023-01-17T07:12:19.294Z,96894.33
2023-01-17T07:15:43.375Z,96893.55
2023-01-17T07:19:07.462Z,96891.73
2023-01-17T07:22:31.394Z,96893.23
2023-01-17T07:26:00.436Z,96899.64
2023-01-17T07:29:24.415Z,96897.27
2023-01-17T07:32:55.324Z,96906.86
2023-01-17T07:36:19.183Z,96910.06
2023-01-17T07:39:43.001Z,96914.18
2023-01-17T07:43:13.479Z,96919.36
2023-01-17T07:46:37.409Z,96920.59
2023-01-17T07:50:02.917Z,96919.62
2023-01-17T07:53:28.568Z,96912.02
2023-01-17T07:56:52.516Z,96918.17
2023-01-17T08:00:16.797Z,96915.09
2023-01-17T08:03:41.321Z,96919.30
2023-01-17T08:07:05.320Z,96923.15
2023-01-17T08:10:29.193Z,96915.88
2023-01-17T08:13:57.528Z,96911.40
2023-01-17T08:17:22.123Z,96909.27
2023-01-17T08:20:46.413Z,96907.91
2023-01-17T08:24:14.541Z,96901.92
2023-01-17T08:27:38.364Z,96894.98
2023-01-17T08:31:10.634Z,96897.41
2023-01-17T08:34:34.838Z,96905.73
2023-01-17T08:38:04.771Z,96901.90
2023-01-17T08:41:28.724Z,96918.33
2023-01-17T08:44:52.636Z,96918.36
2023-01-17T08:48:16.803Z,96915.40
2023-01-17T08:51:41.804Z,96902.18
2023-01-17T08:55:09.083Z,96894.33
2023-01-17T08:58:33.680Z,96902.04
2023-01-17T09:01:58.377Z,96909.29
2023-01-17T09:05:22.355Z,96902.23
2023-01-17T09:08:47.108Z,96887.23
2023-01-17T09:12:11.194Z,96890.06
2023-01-17T09:15:35.591Z,96901.30
2023-01-17T09:19:00.528Z,96908.14
2023-01-17T09:22:24.713Z,96909.52
2023-01-17T09:26:00.391Z,96916.31
2023-01-17T09:29:24.239Z,96917.68
2023-01-17T09:32:57.676Z,96921.61
2023-01-17T09:36:22.208Z,96915.89
2023-01-17T09:39:46.114Z,96919.05
2023-01-17T09:43:26.640Z,96923.93
2023-01-17T09:46:53.064Z,96925.81
2023-01-17T09:50:35.851Z,96923.52
2023-01-17T09:54:00.554Z,96918.75
2023-01-17T09:57:52.184Z,96917.17
2023-01-17T10:01:28.665Z,96918.11
2023-01-17T10:05:16.412Z,96915.64
2023-01-17T10:09:05.365Z,96918.92
2023-01-17T10:12:35.078Z,96918.42
2023-01-17T10:16:19.290Z,96922.67
2023-01-17T10:20:13.856Z,96928.15
2023-01-17T10:23:56.974Z,96931.98
2023-01-17T10:27:31.593Z,96943.91
2023-01-17T10:31:09.130Z,96947.91
2023-01-17T10:34:53.328Z,96959.33
2023-01-17T10:38:18.383Z,96958.02
2023-01-17T10:41:46.258Z,96962.64
2023-01-17T10:45:21.575Z,96967.92
2023-01-17T10:48:52.851Z,96971.20
2023-01-17T10:52:37.912Z,96977.17
2023-01-17T10:56:02.324Z,96982.48
2023-01-17T10:59:34.521Z,96990.58
2023-01-17T11:03:00.024Z,96998.23
2023-01-17T11:06:26.853Z,96997.98
2023-01-17T11:09:53.329Z,97001.62
2023-01-17T11:13:22.389Z,96995.96
2023-01-17T11:16:46.665Z,96998.36
2023-01-17T11:20:33.998Z,96992.15
2023-01-17T11:23:58.189Z,96984.25
2023-01-17T11:27:28.009Z,96986.65
2023-01-17T11:30:56.816Z,96991.67
2023-01-17T11:34:29.475Z,96988.64
2023-01-17T11:37:54.488Z,96985.23
2023-01-17T11:41:21.260Z,96983.08
2023-01-17T11:44:45.189Z,96981.61
2023-01-17T11:48:09.045Z,96980.43
2023-01-17T11:51:35.867Z,96980.13
2023-01-17T11:55:00.354Z,96980.79
2023-01-17T11:58:24.642Z,96974.65
2023-01-17T12:02:50.667Z,96970.02
2023-01-17T12:06:57.775Z,96983.86
2023-01-17T12:10:33.371Z,96984.37
2023-01-17T12:14:27.615Z,96986.88
2023-01-17T12:18:05.920Z,96987.85
2023-01-17T12:21:39.021Z,96979.77
2023-01-17T12:25:31.153Z,96983.48
2023-01-17T12:29:10.601Z,96977.36
2023-01-17T12:32:54.724Z,96979.02
2023-01-17T12:36:48.511Z,96977.17
2023-01-17T12:40:24.096Z,96984.22
2023-01-17T12:43:48.556Z,96990.27
2023-01-17T12:47:16.158Z,96985.61
2023-01-17T12:50:45.767Z,96983.30
2023-01-17T12:54:26.512Z,96988.66
2023-01-17T12:58:00.657Z,96993.02
2023-01-17T13:01:40.269Z,96986.38
2023-01-17T13:05:26.499Z,96983.77
2023-01-17T13:08:56.962Z,96975.02
2023-01-17T13:12:23.738Z,96960.70
2023-01-17T13:15:50.803Z,96949.83
2023-01-17T13:19:44.710Z,96944.20
2023-01-17T13:23:30.110Z,96952.39
2023-01-17T13:26:57.267Z,96965.00
2023-01-17T13:30:58.697Z,96961.40
2023-01-17T13:34:45.423Z,96963.52
2023-01-17T13:38:28.418Z,96964.11
2023-01-17T13:41:55.257Z,96964.39
2023-01-17T13:45:22.567Z,96971.33
2023-01-17T13:48:46.483Z,96966.01
2023-01-17T13:52:23.335Z,96963.27
2023-01-17T13:55:53.420Z,96947.83
2023-01-17T13:59:29.279Z,96946.86
2023-01-17T14:02:55.609Z,96957.02
2023-01-17T14:06:37.780Z,96951.86
2023-01-17T14:10:01.895Z,96947.49
2023-01-17T14:13:34.722Z,96953.32
2023-01-17T14:17:22.987Z,96969.02
2023-01-17T14:20:51.353Z,96996.09
2023-01-17T14:24:19.362Z,97006.02
2023-01-17T14:27:43.347Z,97007.20
2023-01-17T14:31:27.155Z,97011.30
2023-01-17T14:35:37.039Z,97017.68
2023-01-17T14:39:39.059Z,97020.76
2023-01-17T14:43:40.089Z,97032.33
2023-01-17T14:47:37.961Z,97034.38
2023-01-17T14:51:37.023Z,97027.45
2023-01-17T14:55:36.006Z,97046.58
2023-01-17T14:59:36.990Z,97053.42
2023-01-17T15:03:35.077Z,97046.05
2023-01-17T15:07:33.971Z,97044.40
2023-01-17T15:11:40.983Z,97044.69
2023-01-17T15:15:48.984Z,97056.30
2023-01-17T15:19:57.917Z,97058.45
2023-01-17T15:24:03.025Z,97063.86
2023-01-17T15:28:00.931Z,97061.97
2023-01-17T15:32:10.951Z,97067.45
2023-01-17T15:36:17.917Z,97079.63
2023-01-17T15:40:43.931Z,97100.59
2023-01-17T15:44:48.633Z,97125.37
2023-01-17T15:48:52.939Z,97137.67
2023-01-17T15:53:02.967Z,97147.27
2023-01-17T15:57:01.982Z,97148.23
2023-01-17T16:01:00.025Z,97162.52
2023-01-17T16:05:00.898Z,97165.70
2023-01-17T16:09:06.858Z,97167.97
2023-01-17T16:13:06.920Z,97171.28
2023-01-17T16:17:10.892Z,97169.71
2023-01-17T16:21:15.909Z,97167.98
2023-01-17T16:25:14.083Z,97169.37
2023-01-17T16:29:13.945Z,97171.61
2023-01-17T16:33:11.926Z,97181.16
2023-01-17T16:37:10.888Z,97189.69
2023-01-17T16:41:09.930Z,97194.67
2023-01-17T16:45:07.904Z,97204.72
2023-01-17T16:49:05.805Z,97211.23
2023-01-17T16:53:07.853Z,97211.04
2023-01-17T16:57:05.809Z,97211.32
2023-01-17T17:01:03.980Z,97201.23
2023-01-17T17:05:01.779Z,97194.67
2023-01-17T17:08:59.838Z,97195.42
2023-01-17T17:13:05.044Z,97195.56
2023-01-17T17:17:08.854Z,97195.26
2023-01-17T17:21:06.826Z,97195.73
2023-01-17T17:25:04.920Z,97197.81
2023-01-17T17:29:05.848Z,97193.10
2023-01-17T17:33:03.792Z,97187.99
2023-01-17T17:37:03.669Z,97183.44
2023-01-17T17:41:01.834Z,97178.02
2023-01-17T17:44:59.816Z,97172.61
2023-01-17T17:48:57.749Z,97169.34
2023-01-17T17:52:55.891Z,97169.75
2023-01-17T17:56:55.800Z,97169.46
2023-01-17T18:00:53.741Z,97177.66
2023-01-17T18:04:51.746Z,97168.81
2023-01-17T18:08:50.759Z,97169.17
2023-01-17T18:12:48.742Z,97161.39
2023-01-17T18:16:53.798Z,97146.88
2023-01-17T18:20:51.760Z,97146.11
2023-01-17T18:24:49.875Z,97155.13
2023-01-17T18:28:47.726Z,97152.87
2023-01-17T18:32:45.669Z,97157.82
2023-01-17T18:36:43.683Z,97160.14
2023-01-17T18:40:41.695Z,97167.62
2023-01-17T18:44:40.693Z,97175.51
2023-01-17T18:48:38.735Z,97180.11
2023-01-17T18:52:36.712Z,97186.32
2023-01-17T18:56:37.709Z,97192.20
2023-01-17T19:00:35.666Z,97197.66
2023-01-17T19:04:34.669Z,97201.02
2023-01-17T19:08:32.661Z,97202.01
2023-01-17T19:12:30.642Z,97195.08
2023-01-17T19:16:37.728Z,97204.22
2023-01-17T19:20:35.612Z,97226.99
2023-01-17T19:24:33.764Z,97229.48
2023-01-17T19:28:31.625Z,97233.50
2023-01-17T19:32:29.621Z,97238.45
2023-01-17T19:36:31.622Z,97242.45
2023-01-17T19:40:32.590Z,97236.81
2023-01-17T19:44:30.612Z,97228.50
2023-01-17T19:48:44.629Z,97221.06
2023-01-17T19:52:46.705Z,97223.61
2023-01-17T19:56:44.579Z,97228.59
2023-01-17T20:00:46.680Z,97233.23
2023-01-17T20:04:44.569Z,97246.89
2023-01-17T20:08:42.531Z,97260.06
2023-01-17T20:12:40.576Z,97258.62
2023-01-17T20:16:40.658Z,97262.73
2023-01-17T20:20:55.786Z,97265.83
2023-01-17T20:24:54.529Z,97270.27
2023-01-17T20:28:54.969Z,97270.86
2023-01-17T20:32:52.638Z,97278.48
2023-01-17T20:36:50.530Z,97275.73
2023-01-17T20:40:48.757Z,97284.79
2023-01-17T20:44:47.529Z,97283.13
2023-01-17T20:48:45.701Z,97279.77
2023-01-17T20:52:44.841Z,97281.11
2023-01-17T20:56:44.504Z,97278.99
2023-01-17T21:00:44.533Z,97275.50
2023-01-17T21:05:19.590Z,97283.80
2023-01-17T21:09:17.565Z,97287.17
2023-01-17T21:13:16.565Z,97278.38
2023-01-17T21:17:14.470Z,97276.83
2023-01-17T21:21:18.568Z,97267.81
2023-01-17T21:25:16.461Z,97261.13
2023-01-17T21:29:14.472Z,97262.93
2023-01-17T21:33:12.710Z,97251.34
2023-01-17T21:37:10.482Z,97245.73
2023-01-17T21:41:11.442Z,97245.15
2023-01-17T21:45:09.420Z,97250.75
2023-01-17T21:49:07.591Z,97251.14
2023-01-17T21:53:05.464Z,97248.13
2023-01-17T21:57:25.427Z,97246.11
2023-01-17T22:01:36.862Z,97251.45
2023-01-17T22:05:34.434Z,97242.45
2023-01-17T22:09:32.427Z,97228.11
2023-01-17T22:13:32.430Z,97224.02
2023-01-17T22:17:30.349Z,97221.78
2023-01-17T22:21:28.481Z,97202.36
2023-01-17T22:25:27.397Z,97198.17
2023-01-17T22:29:25.479Z,97206.66
2023-01-17T22:33:24.536Z,97206.13
2023-01-17T22:37:22.514Z,97206.36
2023-01-17T22:41:41.377Z,97202.42
2023-01-17T22:45:39.606Z,97198.98
2023-01-17T22:49:37.319Z,97197.40
2023-01-17T22:53:35.324Z,97206.66
2023-01-17T22:57:35.319Z,97204.52
2023-01-17T23:01:37.356Z,97206.44
2023-01-17T23:05:35.344Z,97206.15
2023-01-17T23:09:33.414Z,97210.13
2023-01-17T23:13:38.358Z,97213.65
2023-01-17T23:17:58.333Z,97215.16
2023-01-17T23:22:16.360Z,97207.81
2023-01-17T23:26:15.321Z,97199.84
2023-01-17T23:30:13.344Z,97193.19
2023-01-17T23:34:11.262Z,97194.14
2023-01-17T23:38:26.363Z,97189.73
2023-01-17T23:42:41.272Z,97184.83
2023-01-17T23:46:40.344Z,97180.47
2023-01-17T23:50:38.505Z,97178.95
2023-01-17T23:54:38.215Z,97179.41
2023-01-17T23:58:38.244Z,97172.86
